sensor_id;sensor_type;location;lat;lon;timestamp;pressure;altitude;pressure_sealevel;temperature;humidity
64294;BME280;50636;45.596;5.258;2023-03-03T00:00:43;98875.53;;;7.71;51.46
64294;BME280;50636;45.596;5.258;2023-03-03T00:03:21;98870.59;;;7.76;52.16
64294;BME280;50636;45.596;5.258;2023-03-03T00:06:18;98872.56;;;7.74;51.25
64294;BME280;50636;45.596;5.258;2023-03-03T00:09:08;98865.63;;;7.67;50.51
64294;BME280;50636;45.596;5.258;2023-03-03T00:11:54;98879.00;;;7.49;50.72
64294;BME280;50636;45.596;5.258;2023-03-03T00:14:39;98874.19;;;7.37;51.02
64294;BME280;50636;45.596;5.258;2023-03-03T00:17:25;98877.31;;;7.33;50.78
64294;BME280;50636;45.596;5.258;2023-03-03T00:32:59;98877.59;;;7.15;53.29
64294;BME280;50636;45.596;5.258;2023-03-03T00:35:42;98874.34;;;7.13;52.39
64294;BME280;50636;45.596;5.258;2023-03-03T00:38:13;98882.06;;;7.06;52.30
64294;BME280;50636;45.596;5.258;2023-03-03T00:41:36;98880.28;;;7.07;52.84
64294;BME280;50636;45.596;5.258;2023-03-03T00:47:42;98874.84;;;7.08;53.13
64294;BME280;50636;45.596;5.258;2023-03-03T00:53:14;98872.22;;;7.16;52.59
64294;BME280;50636;45.596;5.258;2023-03-03T00:55:44;98871.22;;;7.17;52.44
64294;BME280;50636;45.596;5.258;2023-03-03T00:58:19;98873.56;;;7.12;53.42
64294;BME280;50636;45.596;5.258;2023-03-03T01:01:22;98873.88;;;7.09;52.23
64294;BME280;50636;45.596;5.258;2023-03-03T01:04:08;98879.03;;;6.94;53.23
64294;BME280;50636;45.596;5.258;2023-03-03T01:06:55;98879.31;;;6.99;52.82
64294;BME280;50636;45.596;5.258;2023-03-03T01:09:21;98876.56;;;7.01;53.41
64294;BME280;50636;45.596;5.258;2023-03-03T01:11:58;98881.28;;;6.97;53.06
64294;BME280;50636;45.596;5.258;2023-03-03T01:14:44;98889.81;;;6.91;52.90
64294;BME280;50636;45.596;5.258;2023-03-03T01:17:15;98889.00;;;6.91;53.98
64294;BME280;50636;45.596;5.258;2023-03-03T01:19:54;98889.75;;;6.99;54.02
64294;BME280;50636;45.596;5.258;2023-03-03T01:22:20;98891.22;;;7.02;53.65
64294;BME280;50636;45.596;5.258;2023-03-03T01:24:47;98891.72;;;6.97;53.48
64294;BME280;50636;45.596;5.258;2023-03-03T01:27:14;98891.72;;;6.97;52.93
64294;BME280;50636;45.596;5.258;2023-03-03T01:29:41;98897.53;;;7.08;52.24
64294;BME280;50636;45.596;5.258;2023-03-03T01:32:08;98890.50;;;7.08;53.02
64294;BME280;50636;45.596;5.258;2023-03-03T01:34:34;98899.50;;;7.06;53.17
64294;BME280;50636;45.596;5.258;2023-03-03T01:37:02;98894.66;;;7.03;52.64
64294;BME280;50636;45.596;5.258;2023-03-03T01:39:29;98894.97;;;6.99;52.60
64294;BME280;50636;45.596;5.258;2023-03-03T01:41:55;98888.47;;;6.95;53.71
64294;BME280;50636;45.596;5.258;2023-03-03T01:44:23;98888.16;;;6.98;53.36
64294;BME280;50636;45.596;5.258;2023-03-03T01:46:55;98885.66;;;7.05;54.27
64294;BME280;50636;45.596;5.258;2023-03-03T01:49:48;98891.53;;;7.07;53.40
64294;BME280;50636;45.596;5.258;2023-03-03T01:55:59;98897.47;;;6.93;53.41
64294;BME280;50636;45.596;5.258;2023-03-03T01:59:02;98895.84;;;6.92;53.26
64294;BME280;50636;45.596;5.258;2023-03-03T02:01:46;98894.28;;;6.83;53.71
64294;BME280;50636;45.596;5.258;2023-03-03T02:04:27;98890.53;;;6.77;53.21
64294;BME280;50636;45.596;5.258;2023-03-03T02:07:00;98889.94;;;6.67;53.25
64294;BME280;50636;45.596;5.258;2023-03-03T02:10:11;98890.25;;;6.64;53.37
64294;BME280;50636;45.596;5.258;2023-03-03T02:13:02;98893.56;;;6.57;53.81
64294;BME280;50636;45.596;5.258;2023-03-03T02:15:43;98897.97;;;6.57;54.21
64294;BME280;50636;45.596;5.258;2023-03-03T02:18:27;98897.13;;;6.65;54.20
64294;BME280;50636;45.596;5.258;2023-03-03T02:21:37;98898.81;;;6.49;53.33
64294;BME280;50636;45.596;5.258;2023-03-03T02:27:34;98896.63;;;6.61;53.16
64294;BME280;50636;45.596;5.258;2023-03-03T02:30:24;98897.19;;;6.48;53.92
64294;BME280;50636;45.596;5.258;2023-03-03T02:35:54;98887.72;;;6.47;53.85
64294;BME280;50636;45.596;5.258;2023-03-03T02:41:52;98889.72;;;6.37;53.80
64294;BME280;50636;45.596;5.258;2023-03-03T02:44:42;98885.81;;;6.33;53.99
64294;BME280;50636;45.596;5.258;2023-03-03T02:47:25;98885.69;;;6.26;54.48
64294;BME280;50636;45.596;5.258;2023-03-03T02:50:03;98885.19;;;6.31;54.52
64294;BME280;50636;45.596;5.258;2023-03-03T02:52:50;98881.75;;;6.38;54.55
64294;BME280;50636;45.596;5.258;2023-03-03T02:55:34;98878.75;;;6.50;54.21
64294;BME280;50636;45.596;5.258;2023-03-03T02:58:00;98888.72;;;6.46;53.87
64294;BME280;50636;45.596;5.258;2023-03-03T03:00:26;98890.19;;;6.40;54.02
64294;BME280;50636;45.596;5.258;2023-03-03T03:03:01;98891.03;;;6.33;54.64
64294;BME280;50636;45.596;5.258;2023-03-03T03:05:28;98894.28;;;6.35;54.46
64294;BME280;50636;45.596;5.258;2023-03-03T03:07:56;98891.81;;;6.42;54.19
64294;BME280;50636;45.596;5.258;2023-03-03T03:10:23;98895.94;;;6.36;53.38
64294;BME280;50636;45.596;5.258;2023-03-03T03:12:49;98897.25;;;6.32;53.63
64294;BME280;50636;45.596;5.258;2023-03-03T03:15:16;98900.84;;;6.23;53.50
64294;BME280;50636;45.596;5.258;2023-03-03T03:17:43;98905.28;;;6.06;53.27
64294;BME280;50636;45.596;5.258;2023-03-03T03:20:10;98900.69;;;5.91;53.40
64294;BME280;50636;45.596;5.258;2023-03-03T03:22:37;98900.41;;;5.78;54.48
64294;BME280;50636;45.596;5.258;2023-03-03T03:25:11;98908.06;;;5.79;54.02
64294;BME280;50636;45.596;5.258;2023-03-03T03:27:47;98900.41;;;5.70;54.73
64294;BME280;50636;45.596;5.258;2023-03-03T03:30:14;98904.63;;;5.63;54.47
64294;BME280;50636;45.596;5.258;2023-03-03T03:33:01;98914.88;;;5.48;55.15
64294;BME280;50636;45.596;5.258;2023-03-03T03:35:27;98912.59;;;5.36;54.29
64294;BME280;50636;45.596;5.258;2023-03-03T03:37:54;98907.53;;;5.43;55.55
64294;BME280;50636;45.596;5.258;2023-03-03T03:40:41;98909.03;;;5.46;54.12
64294;BME280;50636;45.596;5.258;2023-03-03T03:43:08;98915.53;;;5.25;54.24
64294;BME280;50636;45.596;5.258;2023-03-03T03:45:43;98915.66;;;5.07;55.50
64294;BME280;50636;45.596;5.258;2023-03-03T03:48:29;98907.50;;;5.02;55.27
64294;BME280;50636;45.596;5.258;2023-03-03T03:50:59;98919.34;;;5.05;55.35
64294;BME280;50636;45.596;5.258;2023-03-03T03:53:26;98920.84;;;5.07;56.40
64294;BME280;50636;45.596;5.258;2023-03-03T03:56:09;98921.34;;;5.19;57.01
64294;BME280;50636;45.596;5.258;2023-03-03T03:58:35;98921.03;;;5.30;56.50
64294;BME280;50636;45.596;5.258;2023-03-03T04:01:05;98915.53;;;5.42;56.30
64294;BME280;50636;45.596;5.258;2023-03-03T04:03:33;98919.25;;;5.47;56.00
64294;BME280;50636;45.596;5.258;2023-03-03T04:06:00;98924.31;;;5.40;55.71
64294;BME280;50636;45.596;5.258;2023-03-03T04:08:26;98920.41;;;5.45;55.94
64294;BME280;50636;45.596;5.258;2023-03-03T04:10:54;98918.44;;;5.47;56.30
64294;BME280;50636;45.596;5.258;2023-03-03T04:13:21;98929.84;;;5.54;56.22
64294;BME280;50636;45.596;5.258;2023-03-03T04:15:49;98924.97;;;5.59;56.11
64294;BME280;50636;45.596;5.258;2023-03-03T04:18:17;98915.19;;;5.69;56.10
64294;BME280;50636;45.596;5.258;2023-03-03T04:20:43;98916.03;;;5.78;56.26
64294;BME280;50636;45.596;5.258;2023-03-03T04:23:10;98910.66;;;5.88;55.84
64294;BME280;50636;45.596;5.258;2023-03-03T04:25:38;98913.56;;;5.85;55.10
64294;BME280;50636;45.596;5.258;2023-03-03T04:28:05;98910.66;;;5.88;55.50
64294;BME280;50636;45.596;5.258;2023-03-03T04:30:32;98907.06;;;5.89;55.47
64294;BME280;50636;45.596;5.258;2023-03-03T04:32:59;98905.25;;;5.89;56.00
64294;BME280;50636;45.596;5.258;2023-03-03T04:35:26;98903.50;;;5.98;55.82
64294;BME280;50636;45.596;5.258;2023-03-03T04:37:54;98904.44;;;6.05;55.44
64294;BME280;50636;45.596;5.258;2023-03-03T04:40:21;98905.28;;;6.06;55.84
64294;BME280;50636;45.596;5.258;2023-03-03T04:42:48;98903.00;;;6.03;55.16
64294;BME280;50636;45.596;5.258;2023-03-03T04:45:26;98901.19;;;6.03;55.48
64294;BME280;50636;45.596;5.258;2023-03-03T04:48:13;98903.13;;;6.09;55.23
64294;BME280;50636;45.596;5.258;2023-03-03T04:50:40;98907.38;;;6.10;54.52
64294;BME280;50636;45.596;5.258;2023-03-03T04:53:39;98903.97;;;6.10;54.84
64294;BME280;50636;45.596;5.258;2023-03-03T04:56:06;98909.38;;;6.00;54.18
64294;BME280;50636;45.596;5.258;2023-03-03T04:58:33;98911.63;;;5.70;53.66
64294;BME280;50636;45.596;5.258;2023-03-03T05:01:00;98918.78;;;5.27;54.30
64294;BME280;50636;45.596;5.258;2023-03-03T05:03:29;98916.69;;;4.80;54.76
64294;BME280;50636;45.596;5.258;2023-03-03T05:05:56;98921.47;;;4.24;55.69
64294;BME280;50636;45.596;5.258;2023-03-03T05:08:23;98928.59;;;3.96;56.64
64294;BME280;50636;45.596;5.258;2023-03-03T05:10:54;98920.13;;;3.94;57.21
64294;BME280;50636;45.596;5.258;2023-03-03T05:13:20;98918.19;;;3.96;57.40
64294;BME280;50636;45.596;5.258;2023-03-03T05:15:52;98923.19;;;3.89;57.47
64294;BME280;50636;45.596;5.258;2023-03-03T05:18:21;98917.59;;;4.02;57.50
64294;BME280;50636;45.596;5.258;2023-03-03T05:20:52;98925.38;;;4.02;57.19
64294;BME280;50636;45.596;5.258;2023-03-03T05:23:22;98923.94;;;3.82;56.41
64294;BME280;50636;45.596;5.258;2023-03-03T05:25:59;98926.16;;;3.50;57.37
64294;BME280;50636;45.596;5.258;2023-03-03T05:28:32;98928.75;;;3.32;57.96
64294;BME280;50636;45.596;5.258;2023-03-03T05:31:08;98930.50;;;3.32;58.60
64294;BME280;50636;45.596;5.258;2023-03-03T05:33:35;98922.44;;;3.35;58.57
64294;BME280;50636;45.596;5.258;2023-03-03T05:36:02;98929.56;;;3.51;58.82
64294;BME280;50636;45.596;5.258;2023-03-03T05:38:29;98928.03;;;3.66;59.14
64294;BME280;50636;45.596;5.258;2023-03-03T05:40:56;98924.09;;;3.80;58.70
64294;BME280;50636;45.596;5.258;2023-03-03T05:43:22;98922.38;;;3.89;58.44
64294;BME280;50636;45.596;5.258;2023-03-03T05:45:55;98924.31;;;3.87;58.27
64294;BME280;50636;45.596;5.258;2023-03-03T05:48:31;98929.28;;;3.80;58.91
64294;BME280;50636;45.596;5.258;2023-03-03T05:51:09;98931.59;;;3.83;58.39
64294;BME280;50636;45.596;5.258;2023-03-03T05:53:39;98934.47;;;3.80;58.73
64294;BME280;50636;45.596;5.258;2023-03-03T05:56:18;98932.69;;;3.98;58.75
64294;BME280;50636;45.596;5.258;2023-03-03T05:58:49;98935.06;;;3.92;58.44
64294;BME280;50636;45.596;5.258;2023-03-03T06:01:26;98932.13;;;3.87;58.92
64294;BME280;50636;45.596;5.258;2023-03-03T06:03:56;98928.91;;;3.93;58.90
64294;BME280;50636;45.596;5.258;2023-03-03T06:06:34;98935.47;;;4.05;58.57
64294;BME280;50636;45.596;5.258;2023-03-03T06:09:05;98927.78;;;3.95;58.29
64294;BME280;50636;45.596;5.258;2023-03-03T06:11:32;98930.00;;;3.90;58.34
64294;BME280;50636;45.596;5.258;2023-03-03T06:13:58;98931.78;;;3.90;58.70
64294;BME280;50636;45.596;5.258;2023-03-03T06:16:31;98929.84;;;3.92;58.77
64294;BME280;50636;45.596;5.258;2023-03-03T06:18:58;98933.97;;;3.94;58.58
64294;BME280;50636;45.596;5.258;2023-03-03T06:21:31;98933.50;;;3.99;59.18
64294;BME280;50636;45.596;5.258;2023-03-03T06:24:00;98930.44;;;4.04;58.97
64294;BME280;50636;45.596;5.258;2023-03-03T06:26:27;98938.47;;;4.18;58.60
64294;BME280;50636;45.596;5.258;2023-03-03T06:28:54;98940.97;;;4.28;58.41
64294;BME280;50636;45.596;5.258;2023-03-03T06:31:21;98942.56;;;4.47;58.53
64294;BME280;50636;45.596;5.258;2023-03-03T06:33:48;98940.06;;;4.72;58.53
64294;BME280;50636;45.596;5.258;2023-03-03T06:36:15;98945.00;;;4.83;58.21
64294;BME280;50636;45.596;5.258;2023-03-03T06:38:42;98952.03;;;4.99;57.47
64294;BME280;50636;45.596;5.258;2023-03-03T06:41:10;98945.69;;;5.02;56.84
64294;BME280;50636;45.596;5.258;2023-03-03T06:43:38;98952.63;;;4.93;56.90
64294;BME280;50636;45.596;5.258;2023-03-03T06:46:05;98958.09;;;4.73;55.21
64294;BME280;50636;45.596;5.258;2023-03-03T06:48:32;98965.66;;;4.32;55.65
64294;BME280;50636;45.596;5.258;2023-03-03T06:51:01;98964.75;;;3.89;56.91
64294;BME280;50636;45.596;5.258;2023-03-03T06:53:30;98974.00;;;3.56;57.45
64294;BME280;50636;45.596;5.258;2023-03-03T06:55:59;98972.91;;;3.40;58.85
64294;BME280;50636;45.596;5.258;2023-03-03T06:58:27;98978.31;;;3.47;59.02
64294;BME280;50636;45.596;5.258;2023-03-03T07:00:59;98977.84;;;3.34;59.30
64294;BME280;50636;45.596;5.258;2023-03-03T07:03:42;98976.78;;;3.54;59.94
64294;BME280;50636;45.596;5.258;2023-03-03T07:06:33;98976.84;;;3.80;59.06
64294;BME280;50636;45.596;5.258;2023-03-03T07:09:00;98981.66;;;3.93;59.21
64294;BME280;50636;45.596;5.258;2023-03-03T07:11:27;98980.91;;;4.01;59.18
64294;BME280;50636;45.596;5.258;2023-03-03T07:13:55;98985.28;;;4.00;58.85
64294;BME280;50636;45.596;5.258;2023-03-03T07:16:26;98980.34;;;4.42;58.95
64294;BME280;50636;45.596;5.258;2023-03-03T07:18:58;98985.56;;;5.18;56.44
64294;BME280;50636;45.596;5.258;2023-03-03T07:21:35;98984.22;;;5.90;55.53
64294;BME280;50636;45.596;5.258;2023-03-03T07:24:30;98989.78;;;6.03;54.45
64294;BME280;50636;45.596;5.258;2023-03-03T07:27:20;98980.34;;;6.10;53.54
64294;BME280;50636;45.596;5.258;2023-03-03T07:29:49;98984.53;;;6.52;52.71
64294;BME280;50636;45.596;5.258;2023-03-03T07:35:24;98979.59;;;7.05;51.66
64294;BME280;50636;45.596;5.258;2023-03-03T07:37:56;98982.03;;;7.38;49.59
64294;BME280;50636;45.596;5.258;2023-03-03T07:40:34;98983.75;;;7.54;49.86
64294;BME280;50636;45.596;5.258;2023-03-03T07:46:39;98995.41;;;7.66;50.13
64294;BME280;50636;45.596;5.258;2023-03-03T07:49:36;98995.13;;;8.22;49.44
64294;BME280;50636;45.596;5.258;2023-03-03T07:52:30;98995.13;;;8.45;47.94
64294;BME280;50636;45.596;5.258;2023-03-03T07:55:41;98998.75;;;8.74;46.81
64294;BME280;50636;45.596;5.258;2023-03-03T07:58:54;98997.75;;;8.90;46.98
64294;BME280;50636;45.596;5.258;2023-03-03T08:04:54;98998.53;;;9.20;46.13
64294;BME280;50636;45.596;5.258;2023-03-03T08:07:22;99001.66;;;9.67;45.69
64294;BME280;50636;45.596;5.258;2023-03-03T08:09:59;98994.91;;;10.00;45.17
64294;BME280;50636;45.596;5.258;2023-03-03T08:12:40;99000.72;;;10.46;44.98
64294;BME280;50636;45.596;5.258;2023-03-03T08:15:14;98997.19;;;11.02;45.26
64294;BME280;50636;45.596;5.258;2023-03-03T08:18:17;98997.03;;;11.71;44.60
64294;BME280;50636;45.596;5.258;2023-03-03T08:24:10;99002.28;;;11.85;42.30
64294;BME280;50636;45.596;5.258;2023-03-03T08:26:51;98989.78;;;12.00;42.78
64294;BME280;50636;45.596;5.258;2023-03-03T08:29:34;98998.50;;;12.34;42.07
64294;BME280;50636;45.596;5.258;2023-03-03T08:32:00;98993.81;;;12.29;41.25
64294;BME280;50636;45.596;5.258;2023-03-03T08:34:36;98994.84;;;12.22;41.43
64294;BME280;50636;45.596;5.258;2023-03-03T08:37:05;99003.53;;;12.29;40.89
64294;BME280;50636;45.596;5.258;2023-03-03T08:39:47;99001.47;;;12.71;41.39
64294;BME280;50636;45.596;5.258;2023-03-03T08:42:14;99000.91;;;13.21;39.82
64294;BME280;50636;45.596;5.258;2023-03-03T08:45:10;98999.91;;;13.60;38.99
64294;BME280;50636;45.596;5.258;2023-03-03T08:47:54;98994.03;;;13.58;38.65
64294;BME280;50636;45.596;5.258;2023-03-03T08:50:21;99005.91;;;13.35;38.70
64294;BME280;50636;45.596;5.258;2023-03-03T08:52:48;99006.41;;;13.12;38.57
64294;BME280;50636;45.596;5.258;2023-03-03T08:55:15;99011.69;;;13.12;38.83
64294;BME280;50636;45.596;5.258;2023-03-03T08:57:42;99008.44;;;13.04;39.19
64294;BME280;50636;45.596;5.258;2023-03-03T09:00:13;99012.56;;;12.93;38.85
64294;BME280;50636;45.596;5.258;2023-03-03T09:02:44;99010.59;;;12.68;39.61
64294;BME280;50636;45.596;5.258;2023-03-03T09:05:14;99005.16;;;12.23;39.18
64294;BME280;50636;45.596;5.258;2023-03-03T09:07:43;99003.31;;;11.84;40.62
64294;BME280;50636;45.596;5.258;2023-03-03T09:10:13;98999.09;;;11.89;40.30
64294;BME280;50636;45.596;5.258;2023-03-03T09:12:45;98997.47;;;12.08;39.80
64294;BME280;50636;45.596;5.258;2023-03-03T09:15:34;99003.16;;;12.12;40.03
64294;BME280;50636;45.596;5.258;2023-03-03T09:20:44;99004.16;;;12.44;39.97
64294;BME280;50636;45.596;5.258;2023-03-03T09:26:21;99003.13;;;13.69;39.18
64294;BME280;50636;45.596;5.258;2023-03-03T09:28:54;98995.09;;;15.13;36.48
64294;BME280;50636;45.596;5.258;2023-03-03T09:34:26;98980.19;;;17.66;33.20
64294;BME280;50636;45.596;5.258;2023-03-03T09:37:36;98992.56;;;18.62;31.18
64294;BME280;50636;45.596;5.258;2023-03-03T09:46:19;98981.66;;;20.49;28.11
64294;BME280;50636;45.596;5.258;2023-03-03T10:04:02;98979.47;;;21.82;25.61
64294;BME280;50636;45.596;5.258;2023-03-03T10:16:11;98982.41;;;22.32;24.40
64294;BME280;50636;45.596;5.258;2023-03-03T10:21:43;98977.72;;;21.20;24.93
64294;BME280;50636;45.596;5.258;2023-03-03T10:30:24;98999.97;;;18.04;28.49
64294;BME280;50636;45.596;5.258;2023-03-03T10:35:45;98994.84;;;17.69;29.21
64294;BME280;50636;45.596;5.258;2023-03-03T10:41:32;98997.59;;;17.45;29.89
64294;BME280;50636;45.596;5.258;2023-03-03T10:44:22;98987.06;;;17.22;29.82
64294;BME280;50636;45.596;5.258;2023-03-03T10:56:33;98986.00;;;16.94;31.20
64294;BME280;50636;45.596;5.258;2023-03-03T10:59:41;98992.38;;;16.81;31.11
64294;BME280;50636;45.596;5.258;2023-03-03T11:08:53;98984.84;;;16.90;31.33
64294;BME280;50636;45.596;5.258;2023-03-03T11:18:37;98960.13;;;19.53;27.60
64294;BME280;50636;45.596;5.258;2023-03-03T11:21:41;98962.06;;;19.63;27.52
64294;BME280;50636;45.596;5.258;2023-03-03T11:30:33;98966.91;;;17.66;29.41
64294;BME280;50636;45.596;5.258;2023-03-03T11:33:14;98952.75;;;17.15;29.97
64294;BME280;50636;45.596;5.258;2023-03-03T11:35:56;98954.31;;;16.64;29.98
64294;BME280;50636;45.596;5.258;2023-03-03T11:38:56;98960.78;;;15.55;31.43
64294;BME280;50636;45.596;5.258;2023-03-03T11:41:29;98965.22;;;15.12;32.66
64294;BME280;50636;45.596;5.258;2023-03-03T11:44:16;98944.66;;;14.66;32.97
64294;BME280;50636;45.596;5.258;2023-03-03T11:47:05;98959.16;;;14.13;34.05
64294;BME280;50636;45.596;5.258;2023-03-03T11:50:28;98957.28;;;13.95;34.93
64294;BME280;50636;45.596;5.258;2023-03-03T11:55:56;98957.66;;;13.98;35.35
64294;BME280;50636;45.596;5.258;2023-03-03T11:58:32;98944.59;;;14.29;35.33
64294;BME280;50636;45.596;5.258;2023-03-03T12:01:19;98941.91;;;14.54;34.63
64294;BME280;50636;45.596;5.258;2023-03-03T12:12:13;98948.03;;;14.04;35.07
64294;BME280;50636;45.596;5.258;2023-03-03T12:24:24;98941.88;;;13.60;36.05
64294;BME280;50636;45.596;5.258;2023-03-03T12:36:14;98934.25;;;14.02;35.55
64294;BME280;50636;45.596;5.258;2023-03-03T12:48:16;98928.97;;;14.02;35.92
64294;BME280;50636;45.596;5.258;2023-03-03T13:00:18;98928.47;;;13.93;35.29
64294;BME280;50636;45.596;5.258;2023-03-03T13:05:30;98928.22;;;13.70;35.73
64294;BME280;50636;45.596;5.258;2023-03-03T13:08:16;98925.47;;;13.58;35.60
64294;BME280;50636;45.596;5.258;2023-03-03T13:10:57;98926.19;;;13.47;36.00
64294;BME280;50636;45.596;5.258;2023-03-03T13:16:11;98910.75;;;13.50;36.29
64294;BME280;50636;45.596;5.258;2023-03-03T13:18:57;98922.75;;;13.39;36.05
64294;BME280;50636;45.596;5.258;2023-03-03T13:21:58;98922.09;;;13.12;36.40
64294;BME280;50636;45.596;5.258;2023-03-03T13:27:47;98927.50;;;13.24;36.20
64294;BME280;50636;45.596;5.258;2023-03-03T13:30:41;98928.50;;;13.23;36.06
64294;BME280;50636;45.596;5.258;2023-03-03T13:33:34;98925.28;;;13.21;35.95
64294;BME280;50636;45.596;5.258;2023-03-03T13:36:09;98915.38;;;13.10;35.84
64294;BME280;50636;45.596;5.258;2023-03-03T13:38:41;98917.22;;;13.09;36.74
64294;BME280;50636;45.596;5.258;2023-03-03T13:44:30;98914.31;;;13.56;35.98
64294;BME280;50636;45.596;5.258;2023-03-03T13:47:31;98913.03;;;13.90;35.60
64294;BME280;50636;45.596;5.258;2023-03-03T13:56:28;98906.94;;;14.77;33.84
64294;BME280;50636;45.596;5.258;2023-03-03T14:02:03;98907.31;;;15.53;32.45
64294;BME280;50636;45.596;5.258;2023-03-03T14:05:02;98903.84;;;15.94;32.35
64294;BME280;50636;45.596;5.258;2023-03-03T14:08:03;98901.84;;;16.13;31.27
64294;BME280;50636;45.596;5.258;2023-03-03T14:10:43;98899.56;;;16.05;31.01
64294;BME280;50636;45.596;5.258;2023-03-03T14:13:28;98902.56;;;16.09;31.55
64294;BME280;50636;45.596;5.258;2023-03-03T14:19:18;98898.75;;;16.16;30.98
64294;BME280;50636;45.596;5.258;2023-03-03T14:25:51;98904.56;;;15.48;31.91
64294;BME280;50636;45.596;5.258;2023-03-03T14:29:03;98903.75;;;15.17;32.63
64294;BME280;50636;45.596;5.258;2023-03-03T14:31:43;98906.44;;;14.98;32.80
64294;BME280;50636;45.596;5.258;2023-03-03T14:34:38;98906.78;;;14.72;33.28
64294;BME280;50636;45.596;5.258;2023-03-03T14:37:27;98913.84;;;14.60;34.02
64294;BME280;50636;45.596;5.258;2023-03-03T14:40:34;98905.06;;;14.41;34.12
64294;BME280;50636;45.596;5.258;2023-03-03T14:46:42;98909.50;;;13.78;34.83
64294;BME280;50636;45.596;5.258;2023-03-03T14:49:44;98904.09;;;13.41;35.76
64294;BME280;50636;45.596;5.258;2023-03-03T14:52:30;98903.78;;;13.24;35.94
64294;BME280;50636;45.596;5.258;2023-03-03T14:55:01;98902.41;;;13.15;36.17
64294;BME280;50636;45.596;5.258;2023-03-03T14:57:53;98909.97;;;13.05;36.66
64294;BME280;50636;45.596;5.258;2023-03-03T15:03:20;98914.28;;;12.92;36.67
64294;BME280;50636;45.596;5.258;2023-03-03T15:06:10;98915.13;;;12.79;36.52
64294;BME280;50636;45.596;5.258;2023-03-03T15:08:56;98905.66;;;12.65;36.76
64294;BME280;50636;45.596;5.258;2023-03-03T15:11:44;98907.34;;;12.46;37.33
64294;BME280;50636;45.596;5.258;2023-03-03T15:14:14;98908.34;;;12.45;37.68
64294;BME280;50636;45.596;5.258;2023-03-03T15:32:32;98902.66;;;12.62;37.93
64294;BME280;50636;45.596;5.258;2023-03-03T15:44:45;98906.00;;;12.24;38.48
64294;BME280;50636;45.596;5.258;2023-03-03T16:03:17;98921.19;;;11.82;39.36
64294;BME280;50636;45.596;5.258;2023-03-03T16:12:20;98926.59;;;11.33;40.21
64294;BME280;50636;45.596;5.258;2023-03-03T16:22:20;98926.34;;;11.15;40.52
64294;BME280;50636;45.596;5.258;2023-03-03T16:27:47;98928.00;;;11.36;40.59
64294;BME280;50636;45.596;5.258;2023-03-03T16:34:18;98938.50;;;11.43;40.44
64294;BME280;50636;45.596;5.258;2023-03-03T16:45:22;98950.66;;;11.50;40.52
64294;BME280;50636;45.596;5.258;2023-03-03T16:54:54;98962.16;;;11.43;40.64
64294;BME280;50636;45.596;5.258;2023-03-03T17:00:20;98969.84;;;11.37;41.16
64294;BME280;50636;45.596;5.258;2023-03-03T17:03:14;98973.91;;;11.47;40.97
64294;BME280;50636;45.596;5.258;2023-03-03T17:12:32;98978.78;;;11.50;40.61
64294;BME280;50636;45.596;5.258;2023-03-03T17:15:19;98984.41;;;11.47;40.50
64294;BME280;50636;45.596;5.258;2023-03-03T17:18:11;98995.69;;;11.34;40.83
64294;BME280;50636;45.596;5.258;2023-03-03T17:20:49;98988.22;;;11.31;40.99
64294;BME280;50636;45.596;5.258;2023-03-03T17:37:36;98992.94;;;11.69;40.91
64294;BME280;50636;45.596;5.258;2023-03-03T17:43:40;99000.97;;;11.34;40.70
64294;BME280;50636;45.596;5.258;2023-03-03T17:46:19;99008.84;;;11.27;40.99
64294;BME280;50636;45.596;5.258;2023-03-03T17:57:51;99016.72;;;11.34;41.34
64294;BME280;50636;45.596;5.258;2023-03-03T18:01:28;99024.22;;;11.37;41.69
64294;BME280;50636;45.596;5.258;2023-03-03T18:09:59;99026.25;;;11.42;41.61
64294;BME280;50636;45.596;5.258;2023-03-03T18:21:58;99034.34;;;11.47;42.03
64294;BME280;50636;45.596;5.258;2023-03-03T18:25:03;99038.81;;;11.53;41.94
64294;BME280;50636;45.596;5.258;2023-03-03T18:39:12;99042.91;;;11.62;42.28
64294;BME280;50636;45.596;5.258;2023-03-03T18:44:44;99040.69;;;11.72;41.88
64294;BME280;50636;45.596;5.258;2023-03-03T18:47:16;99034.16;;;11.48;41.75
64294;BME280;50636;45.596;5.258;2023-03-03T18:50:13;99034.88;;;11.22;42.34
64294;BME280;50636;45.596;5.258;2023-03-03T18:53:26;99039.56;;;10.92;42.84
64294;BME280;50636;45.596;5.258;2023-03-03T18:55:56;99049.94;;;10.72;42.63
64294;BME280;50636;45.596;5.258;2023-03-03T18:58:29;99049.44;;;10.55;43.45
64294;BME280;50636;45.596;5.258;2023-03-03T19:09:49;99070.38;;;9.17;46.13
64294;BME280;50636;45.596;5.258;2023-03-03T19:12:56;99072.28;;;9.09;45.91
64294;BME280;50636;45.596;5.258;2023-03-03T19:21:00;99069.59;;;9.17;46.78
64294;BME280;50636;45.596;5.258;2023-03-03T19:29:30;99087.97;;;9.53;46.62
64294;BME280;50636;45.596;5.258;2023-03-03T19:32:41;99084.44;;;9.61;46.63
64294;BME280;50636;45.596;5.258;2023-03-03T19:35:26;99086.88;;;9.63;46.44
64294;BME280;50636;45.596;5.258;2023-03-03T19:38:17;99091.25;;;9.77;47.17
64294;BME280;50636;45.596;5.258;2023-03-03T19:47:43;99082.97;;;10.59;45.22
64294;BME280;50636;45.596;5.258;2023-03-03T19:56:44;99084.13;;;10.78;45.02
64294;BME280;50636;45.596;5.258;2023-03-03T19:59:39;99084.44;;;10.97;44.19
64294;BME280;50636;45.596;5.258;2023-03-03T20:02:23;99076.75;;;10.95;44.22
64294;BME280;50636;45.596;5.258;2023-03-03T20:14:01;99080.03;;;11.46;43.35
64294;BME280;50636;45.596;5.258;2023-03-03T20:16:43;99072.00;;;11.54;42.72
64294;BME280;50636;45.596;5.258;2023-03-03T20:26:15;99073.69;;;11.27;43.82
64294;BME280;50636;45.596;5.258;2023-03-03T20:28:56;99085.03;;;11.27;43.88
64294;BME280;50636;45.596;5.258;2023-03-03T20:34:25;99096.34;;;11.28;43.09
64294;BME280;50636;45.596;5.258;2023-03-03T20:37:10;99093.56;;;11.01;43.75
64294;BME280;50636;45.596;5.258;2023-03-03T20:45:46;99108.59;;;10.86;44.46
64294;BME280;50636;45.596;5.258;2023-03-03T20:48:39;99110.03;;;10.88;44.44
64294;BME280;50636;45.596;5.258;2023-03-03T20:57:39;99097.22;;;11.42;43.71
64294;BME280;50636;45.596;5.258;2023-03-03T21:03:52;99107.81;;;11.68;43.31
64294;BME280;50636;45.596;5.258;2023-03-03T21:06:19;99102.75;;;11.60;43.10